KFMH/FMH METAR and TAF weather

Enter ICAO airport designator
Station Type Date Time Source
KFMH METAR 2022/05/23 13:45 UTC NOAA

KFMH 231345Z 01012KT 10SM SCT027 BKN036 BKN060 18/10 A3013


Station Type Date Time Source
KFMH Decoded METAR 2022/05/23 13:45 UTC NOAA

Otis Air National Guard Base, MA, United States (KFMH) 41-39N 070-31W
May 23, 2022 - 09:45 AM EDT / 2022.05.23 1345 UTC
Wind: from the N (010 degrees) at 14 MPH (12 KT):0
Visibility: 10 mile(s):0
Sky conditions: mostly cloudy
Temperature: 64 F (18 C)
Dew Point: 50 F (10 C)
Relative Humidity: 59%
Pressure (altimeter): 30.13 in. Hg (1020 hPa)
ob: KFMH 231345Z 01012KT 10SM SCT027 BKN036 BKN060 18/10 A3013
cycle: 14

Station Type Date Time Source
KFMH TAF 2022/05/23 13:15 UTC NOAA

TAF
AMD KFMH 231312Z 2313/2412 35010G18KT P6SM BKN026 OVC040
FM231400 02013G19KT P6SM OVC050
FM232300 07005KT P6SM BKN250

Example: see airport list